bennadel.com alexa rank chart, bennadel.com alexa rank daily changes

bennadel.com alexa rank chart, bennadel.com alexa rank daily changes

bennadel.com
Actual rank:
86 799

RANK HISTORY

Date Rank Diff
2017/09/20 86 799 -179
2017/09/19 86 978 +3 420
2017/09/18 83 558 +1 625
2017/09/17 81 933 +1 159
2017/09/16 80 774 +2 851
2017/09/15 77 923 -753
2017/09/14 78 676 -961
2017/09/13 79 637 -1 785
2017/09/12 81 422 +293
2017/09/11 81 129 +579
2017/09/10 80 550 +594
2017/09/09 79 956 -3 430
2017/09/08 83 386 -129
2017/09/07 83 515 -1 271
2017/09/06 84 786 +1 045
2017/09/05 83 741 +2 519
2017/09/04 81 222 +3 053
2017/09/03 78 169 +60
2017/09/02 78 109 +920
2017/09/01 77 189 -1 338
2017/08/31 78 527 -489
2017/08/30 79 016 -1 141
2017/08/29 80 157 +2 636
2017/08/28 77 521 +1 402
2017/08/27 76 119 +210
2017/08/26 75 909 +830
2017/08/25 75 079 +32
2017/08/24 75 047 -2 253
2017/08/23 77 300 +48
2017/08/22 77 252 +1 563
2017/08/21 75 689 +578
2017/08/20 75 111 +477
2017/08/19 74 634 -1 990
2017/08/18 76 624 +363
2017/08/17 76 261 -1 078
2017/08/16 77 339 -1 161
2017/08/15 78 500 +1 522
2017/08/14 76 978 +1 625
2017/08/13 75 353 +1 384
2017/08/12 73 969 +652
2017/08/11 73 317 -550
2017/08/10 73 867 -539
2017/08/09 74 406 -753
2017/08/08 75 159 +430
2017/08/07 74 729 +1 770
2017/08/06 72 959 -31
2017/08/05 72 990 -2 316
2017/08/04 75 306 -2 495
2017/08/03 77 801 +357
2017/08/02 77 444 -1 497
2017/08/01 78 941 +890
2017/07/31 78 051 +2 383
2017/07/30 75 668 -40
2017/07/29 75 708 -478
2017/07/28 76 186 +8
2017/07/27 76 178 -1 900
2017/07/26 78 078 -2 161
2017/07/25 80 239 +1 501
2017/07/24 78 738 +1 822
2017/07/23 76 916 +652
2017/07/22 76 264

WIDGET FOR YOUR SITE

DOMAINS WITH THE NEAREST RANK

Domain Rank
courrierdelouest.fr 86 794
lpl.com 86 795
spclub42.ru 86 796
ksilbo.co.kr 86 797
jeftinije.hr 86 798
bennadel.com 86 799
lightspeedhq.com 86 800
hzfc.gov.cn 86 801
appointy.com 86 802
aprenderinglesrapidoyfacil.com 86 803
golyr.de 86 804

DOMAINS WITH THE NEAREST RANK BY TLD .com

Domain Rank
ispionage.com 86 785
zhuantilan.com 86 790
maksimumkitap.com 86 792
vamtam.com 86 793
lpl.com 86 795
bennadel.com 86 799
lightspeedhq.com 86 800
appointy.com 86 802
aprenderinglesrapidoyfacil.com 86 803
i-skylark.com 86 810
lunwentianxia.com 86 814